createdAt,value
2023-04-11T00:00:39.981Z,66.50
2023-04-11T00:03:07.222Z,66.50
2023-04-11T00:05:34.356Z,66.80
2023-04-11T00:08:01.464Z,67.00
2023-04-11T00:10:28.512Z,67.00
2023-04-11T00:12:56.816Z,67.10
2023-04-11T00:15:24.656Z,67.20
2023-04-11T00:17:51.744Z,67.10
2023-04-11T00:20:19.201Z,67.20
2023-04-11T00:22:46.217Z,67.00
2023-04-11T00:25:13.198Z,67.00
2023-04-11T00:27:40.143Z,67.00
2023-04-11T00:30:07.932Z,67.10
2023-04-11T00:32:34.903Z,67.10
2023-04-11T00:35:02.048Z,67.00
2023-04-11T00:37:29.104Z,66.90
2023-04-11T00:39:56.406Z,66.90
2023-04-11T00:42:23.434Z,66.90
2023-04-11T00:44:51.022Z,67.00
2023-04-11T00:47:18.825Z,67.20
2023-04-11T00:49:46.567Z,67.50
2023-04-11T00:52:13.734Z,67.70
2023-04-11T00:54:41.202Z,67.90
2023-04-11T00:57:08.548Z,68.00
2023-04-11T00:59:35.880Z,68.00
2023-04-11T01:02:02.940Z,67.90
2023-04-11T01:04:30.177Z,67.80
2023-04-11T01:07:04.199Z,67.70
2023-04-11T01:09:33.942Z,67.80
2023-04-11T01:12:03.318Z,67.90
2023-04-11T01:14:30.672Z,67.80
2023-04-11T01:16:58.176Z,67.80
2023-04-11T01:19:29.197Z,67.70
2023-04-11T01:21:58.027Z,67.70
2023-04-11T01:24:25.323Z,67.60
2023-04-11T01:26:52.384Z,67.60
2023-04-11T01:29:20.217Z,67.60
2023-04-11T01:31:48.277Z,67.50
2023-04-11T01:34:17.755Z,67.50
2023-04-11T01:36:45.414Z,67.50
2023-04-11T01:39:12.501Z,67.50
2023-04-11T01:41:41.841Z,67.60
2023-04-11T01:44:09.011Z,67.90
2023-04-11T01:46:36.102Z,68.00
2023-04-11T01:49:03.869Z,67.90
2023-04-11T01:51:32.147Z,67.90
2023-04-11T01:53:59.154Z,67.90
2023-04-11T01:56:26.169Z,67.80
2023-04-11T01:58:53.467Z,67.70
2023-04-11T02:01:20.678Z,67.60
2023-04-11T02:03:47.783Z,67.60
2023-04-11T02:06:16.705Z,67.50
2023-04-11T02:08:44.786Z,67.40
2023-04-11T02:11:11.922Z,67.10
2023-04-11T02:13:38.962Z,66.80
2023-04-11T02:16:18.204Z,66.60
2023-04-11T02:18:46.299Z,66.50
2023-04-11T02:21:13.412Z,66.50
2023-04-11T02:23:40.349Z,66.50
2023-04-11T02:26:07.346Z,66.50
2023-04-11T02:28:34.628Z,66.40
2023-04-11T02:31:03.188Z,66.50
2023-04-11T02:33:30.779Z,66.50
2023-04-11T02:35:57.882Z,66.50
2023-04-11T02:38:24.848Z,66.50
2023-04-11T02:40:51.772Z,66.40
2023-04-11T02:43:18.738Z,66.40
2023-04-11T02:45:45.767Z,66.50
2023-04-11T02:48:14.034Z,66.60
2023-04-11T02:50:44.337Z,66.70
2023-04-11T02:53:11.952Z,67.00
2023-04-11T02:55:45.776Z,67.10
2023-04-11T02:58:20.076Z,67.20
2023-04-11T03:00:50.048Z,67.40
2023-04-11T03:03:17.356Z,67.40
2023-04-11T03:05:47.476Z,67.30
2023-04-11T03:08:18.393Z,67.10
2023-04-11T03:10:50.773Z,66.80
2023-04-11T03:13:17.969Z,66.70
2023-04-11T03:15:45.297Z,66.60
2023-04-11T03:18:15.828Z,66.50
2023-04-11T03:20:45.359Z,66.50
2023-04-11T03:23:15.427Z,66.40
2023-04-11T03:25:44.663Z,66.50
2023-04-11T03:28:12.776Z,66.40
2023-04-11T03:30:41.156Z,66.30
2023-04-11T03:33:09.633Z,66.30
2023-04-11T03:35:37.303Z,66.40
2023-04-11T03:38:04.399Z,66.60
2023-04-11T03:40:31.405Z,66.70
2023-04-11T03:43:09.601Z,67.00
2023-04-11T03:45:37.347Z,67.20
2023-04-11T03:48:07.866Z,67.40
2023-04-11T03:50:57.555Z,67.70
2023-04-11T03:53:33.091Z,67.70
2023-04-11T03:56:08.317Z,68.00
2023-04-11T03:58:38.038Z,68.00
2023-04-11T04:01:05.517Z,67.80
2023-04-11T04:03:33.137Z,67.70
2023-04-11T04:06:00.815Z,67.60
2023-04-11T04:08:28.328Z,67.60
2023-04-11T04:10:56.181Z,67.50
2023-04-11T04:13:23.327Z,67.30
2023-04-11T04:16:03.642Z,67.20
2023-04-11T04:18:33.001Z,67.10
2023-04-11T04:21:00.935Z,66.90
2023-04-11T04:23:30.025Z,66.80
2023-04-11T04:26:13.227Z,66.60
2023-04-11T04:28:46.426Z,66.50
2023-04-11T04:31:25.618Z,66.50
2023-04-11T04:34:10.587Z,66.40
2023-04-11T04:36:47.831Z,66.40
2023-04-11T04:39:19.775Z,66.40
2023-04-11T04:41:58.210Z,66.30
2023-04-11T04:44:30.687Z,66.30
2023-04-11T04:47:02.609Z,66.40
2023-04-11T04:49:30.482Z,66.40
2023-04-11T04:51:57.419Z,66.50
2023-04-11T04:54:24.987Z,66.60
2023-04-11T04:56:52.808Z,66.60
2023-04-11T04:59:20.512Z,66.70
2023-04-11T05:01:54.674Z,66.80
2023-04-11T05:04:28.122Z,66.70
2023-04-11T05:06:58.951Z,66.50
2023-04-11T05:09:26.624Z,66.40
2023-04-11T05:12:01.602Z,66.30
2023-04-11T05:14:30.710Z,66.40
2023-04-11T05:16:57.730Z,66.40
2023-04-11T05:19:25.019Z,66.30
2023-04-11T05:21:52.589Z,66.30
2023-04-11T05:24:19.621Z,66.10
2023-04-11T05:26:46.848Z,66.10
2023-04-11T05:29:17.942Z,65.90
2023-04-11T05:31:44.934Z,65.80
2023-04-11T05:34:11.911Z,65.70
2023-04-11T05:36:38.986Z,65.70
2023-04-11T05:39:06.099Z,65.60
2023-04-11T05:41:33.208Z,65.60
2023-04-11T05:44:04.006Z,65.50
2023-04-11T05:46:35.798Z,65.30
2023-04-11T05:49:03.371Z,65.00
2023-04-11T05:51:30.819Z,64.90
2023-04-11T05:53:58.275Z,64.60
2023-04-11T05:56:25.726Z,64.10
2023-04-11T05:58:52.750Z,62.90
2023-04-11T06:01:19.800Z,61.50
2023-04-11T06:03:47.201Z,59.90
2023-04-11T06:06:14.576Z,58.70
2023-04-11T06:08:41.669Z,57.10
2023-04-11T06:11:08.814Z,55.20
2023-04-11T06:13:35.759Z,54.40
2023-04-11T06:16:02.806Z,53.30
2023-04-11T06:18:29.914Z,52.90
2023-04-11T06:20:57.746Z,53.30
2023-04-11T06:23:24.698Z,52.90
2023-04-11T06:25:51.732Z,51.60
2023-04-11T06:28:18.701Z,50.60
2023-04-11T06:30:45.905Z,49.90
2023-04-11T06:33:13.002Z,49.10
2023-04-11T06:35:40.129Z,48.70
2023-04-11T06:38:07.075Z,48.30
2023-04-11T06:40:33.995Z,47.70
2023-04-11T06:43:01.844Z,47.00
2023-04-11T06:45:28.940Z,46.80
2023-04-11T06:47:56.000Z,46.50
2023-04-11T06:50:23.113Z,45.90
2023-04-11T06:52:50.008Z,45.20
2023-04-11T06:55:17.220Z,44.60
2023-04-11T06:57:44.116Z,43.40
2023-04-11T07:00:13.135Z,43.30
2023-04-11T07:02:40.135Z,42.90
2023-04-11T07:05:09.361Z,42.20
2023-04-11T07:07:38.617Z,41.10
2023-04-11T07:10:06.442Z,40.00
2023-04-11T07:12:33.274Z,39.60
2023-04-11T07:15:00.390Z,38.40
2023-04-11T07:17:27.388Z,37.30
2023-04-11T07:19:54.426Z,36.10
2023-04-11T07:22:21.788Z,34.50
2023-04-11T07:24:51.416Z,33.50
2023-04-11T07:27:18.867Z,32.60
2023-04-11T07:29:45.830Z,31.90
2023-04-11T07:32:12.698Z,31.40
2023-04-11T07:34:39.558Z,30.50
2023-04-11T07:37:06.464Z,29.90
2023-04-11T07:39:33.974Z,29.80
2023-04-11T07:42:01.907Z,29.10
2023-04-11T07:44:28.869Z,28.60
2023-04-11T07:46:55.777Z,28.60
2023-04-11T07:49:22.676Z,28.50
2023-04-11T07:51:49.582Z,27.90
2023-04-11T07:54:16.698Z,27.10
2023-04-11T07:56:43.569Z,27.30
2023-04-11T07:59:13.171Z,27.20
2023-04-11T08:01:40.147Z,27.30
2023-04-11T08:04:07.091Z,27.80
2023-04-11T08:06:34.433Z,27.50
2023-04-11T08:09:01.321Z,27.50
2023-04-11T08:11:28.140Z,27.90
2023-04-11T08:13:55.345Z,27.60
2023-04-11T08:16:22.438Z,27.90
2023-04-11T08:18:49.342Z,27.90
2023-04-11T08:21:16.290Z,27.80
2023-04-11T08:23:43.088Z,27.70
2023-04-11T08:26:11.869Z,27.70
2023-04-11T08:28:41.114Z,27.40
2023-04-11T08:31:10.612Z,27.40
2023-04-11T08:33:39.015Z,27.20
2023-04-11T08:36:10.262Z,27.20
2023-04-11T08:38:37.816Z,26.40
2023-04-11T08:41:04.815Z,25.70
2023-04-11T08:43:35.338Z,26.00
2023-04-11T08:46:04.080Z,26.10
2023-04-11T08:48:32.259Z,25.80
2023-04-11T08:50:59.346Z,25.40
2023-04-11T08:53:26.956Z,25.40
2023-04-11T08:55:53.813Z,26.40
2023-04-11T08:58:20.754Z,26.40
2023-04-11T09:00:47.550Z,26.20
2023-04-11T09:03:16.420Z,26.10
2023-04-11T09:05:44.159Z,27.10
2023-04-11T09:08:11.809Z,26.80
2023-04-11T09:10:39.560Z,27.70
2023-04-11T09:13:20.555Z,27.90
2023-04-11T09:15:47.838Z,28.40
2023-04-11T09:18:33.845Z,28.70
2023-04-11T09:21:01.641Z,29.40
2023-04-11T09:23:28.880Z,29.60
2023-04-11T09:25:55.908Z,29.50
2023-04-11T09:28:23.182Z,29.70
2023-04-11T09:30:53.782Z,29.20
2023-04-11T09:33:28.568Z,28.50
2023-04-11T09:35:56.880Z,28.10
2023-04-11T09:38:27.599Z,28.00
2023-04-11T09:40:54.470Z,27.60
2023-04-11T09:43:21.546Z,27.40
2023-04-11T09:45:54.597Z,26.90
2023-04-11T09:48:26.853Z,27.30
2023-04-11T09:51:04.441Z,27.30
2023-04-11T09:53:31.795Z,27.70
2023-04-11T09:55:58.685Z,27.60
2023-04-11T09:58:26.161Z,27.40
2023-04-11T10:00:53.813Z,27.40
2023-04-11T10:03:23.723Z,27.30
2023-04-11T10:05:52.710Z,27.10
2023-04-11T10:08:32.934Z,27.80
2023-04-11T10:11:00.275Z,27.60
2023-04-11T10:13:37.646Z,27.80
2023-04-11T10:16:12.351Z,27.30
2023-04-11T10:18:51.245Z,26.90
2023-04-11T10:21:30.274Z,27.10
2023-04-11T10:24:17.546Z,27.20
2023-04-11T10:26:55.236Z,27.50
2023-04-11T10:29:34.699Z,27.20
2023-04-11T10:32:08.626Z,27.30
2023-04-11T10:34:38.819Z,26.70
2023-04-11T10:37:09.442Z,26.20
2023-04-11T10:39:48.419Z,25.50
2023-04-11T10:42:27.860Z,25.90
2023-04-11T10:45:13.140Z,25.80
2023-04-11T10:47:40.361Z,25.40
2023-04-11T10:50:33.284Z,25.20
2023-04-11T10:53:01.341Z,25.20
2023-04-11T10:55:29.007Z,24.60
2023-04-11T10:58:09.421Z,24.00
2023-04-11T11:00:49.529Z,24.60
2023-04-11T11:03:19.401Z,25.80
2023-04-11T11:05:46.693Z,26.90
2023-04-11T11:08:13.697Z,26.70
2023-04-11T11:10:41.850Z,27.20
2023-04-11T11:13:08.999Z,27.90
2023-04-11T11:15:39.944Z,28.10
2023-04-11T11:18:07.855Z,27.80
2023-04-11T11:20:35.842Z,27.90
2023-04-11T11:23:03.919Z,27.90
2023-04-11T11:25:31.242Z,27.70
2023-04-11T11:28:02.174Z,27.50
2023-04-11T11:30:29.033Z,27.40
2023-04-11T11:32:56.865Z,27.70
2023-04-11T11:35:24.296Z,28.30
2023-04-11T11:37:54.538Z,28.30
2023-04-11T11:40:24.279Z,28.50
2023-04-11T11:42:51.811Z,28.50
2023-04-11T11:45:19.797Z,28.10
2023-04-11T11:47:47.635Z,28.30
2023-04-11T11:50:31.182Z,28.80
2023-04-11T11:53:18.805Z,28.30
2023-04-11T11:55:45.984Z,28.90
2023-04-11T11:58:12.803Z,28.50
2023-04-11T12:00:40.113Z,28.50
2023-04-11T12:03:09.856Z,28.60
2023-04-11T12:05:37.056Z,28.80
2023-04-11T12:08:04.920Z,29.00
2023-04-11T12:10:42.072Z,29.00
2023-04-11T12:13:27.010Z,28.30
2023-04-11T12:19:02.805Z,27.60
2023-04-11T12:21:30.342Z,28.10
2023-04-11T12:23:57.603Z,27.60
2023-04-11T12:26:25.349Z,27.60
2023-04-11T12:28:52.537Z,28.00
2023-04-11T12:31:21.336Z,27.90
2023-04-11T12:33:48.436Z,27.80
2023-04-11T12:36:15.549Z,28.00
2023-04-11T12:38:42.523Z,27.90
2023-04-11T12:43:41.058Z,28.20
2023-04-11T12:46:08.081Z,28.90
2023-04-11T12:48:34.940Z,28.70
2023-04-11T12:51:01.804Z,28.40
2023-04-11T12:53:28.627Z,28.60
2023-04-11T12:55:55.468Z,28.10
2023-04-11T12:58:22.285Z,27.50
2023-04-11T13:00:49.134Z,27.60
2023-04-11T13:03:16.354Z,27.40
2023-04-11T13:05:43.283Z,27.30
2023-04-11T13:08:10.136Z,27.70
2023-04-11T13:10:36.944Z,28.40
2023-04-11T13:13:15.432Z,28.50
2023-04-11T13:15:44.610Z,28.60
2023-04-11T13:18:11.436Z,29.20
2023-04-11T13:20:38.332Z,29.50
2023-04-11T13:23:05.532Z,29.50
2023-04-11T13:25:32.339Z,29.70
2023-04-11T13:27:59.153Z,29.70
2023-04-11T13:30:26.143Z,30.30
2023-04-11T13:32:52.970Z,31.10
2023-04-11T13:35:19.791Z,32.00
2023-04-11T13:37:47.165Z,32.60
2023-04-11T13:40:14.031Z,33.30
2023-04-11T13:42:40.958Z,34.30
2023-04-11T13:45:08.034Z,34.90
2023-04-11T13:47:36.929Z,35.00
2023-04-11T13:50:06.237Z,34.70
2023-04-11T13:52:33.018Z,34.70
2023-04-11T13:54:59.918Z,34.60
2023-04-11T13:57:28.477Z,34.40
2023-04-11T13:59:55.439Z,34.20
2023-04-11T14:02:22.549Z,34.40
2023-04-11T14:04:49.560Z,34.70
2023-04-11T14:07:16.433Z,34.80
2023-04-11T14:09:43.211Z,35.20
2023-04-11T14:12:10.047Z,35.10
2023-04-11T14:14:36.855Z,35.20
2023-04-11T14:17:03.710Z,35.40
2023-04-11T14:19:30.846Z,35.70
2023-04-11T14:21:58.011Z,36.20
2023-04-11T14:24:25.135Z,36.60
2023-04-11T14:26:52.186Z,37.00
2023-04-11T14:29:20.932Z,37.60
2023-04-11T14:31:48.624Z,38.30
2023-04-11T14:34:16.087Z,38.90
2023-04-11T14:36:42.941Z,39.40
2023-04-11T14:39:09.774Z,39.80
2023-04-11T14:41:36.659Z,39.80
2023-04-11T14:44:03.505Z,39.70
2023-04-11T14:46:30.404Z,40.20
2023-04-11T14:48:57.351Z,40.80
2023-04-11T14:51:27.136Z,41.00
2023-04-11T14:53:55.429Z,40.90
2023-04-11T14:56:23.084Z,40.20
2023-04-11T14:58:50.604Z,40.10
2023-04-11T15:01:17.842Z,40.30
2023-04-11T15:03:45.363Z,40.30
2023-04-11T15:06:12.953Z,40.10
2023-04-11T15:08:40.450Z,40.20
2023-04-11T15:11:07.863Z,40.00
2023-04-11T15:13:35.144Z,39.40
2023-04-11T15:16:05.515Z,38.80
2023-04-11T15:18:32.659Z,38.20
2023-04-11T15:21:00.052Z,38.10
2023-04-11T15:23:27.065Z,37.40
2023-04-11T15:25:54.713Z,37.10
2023-04-11T15:28:22.140Z,37.20
2023-04-11T15:30:50.088Z,37.30
2023-04-11T15:33:17.161Z,37.70
2023-04-11T15:35:45.475Z,38.00
2023-04-11T15:38:13.254Z,38.40
2023-04-11T15:40:40.512Z,39.20
2023-04-11T15:43:09.155Z,39.90
2023-04-11T15:45:37.112Z,40.30
2023-04-11T15:48:04.375Z,41.10
2023-04-11T15:50:31.705Z,41.70
2023-04-11T15:52:58.829Z,42.30
2023-04-11T15:55:25.671Z,43.20
2023-04-11T15:57:52.611Z,43.70
2023-04-11T16:00:22.188Z,44.40
2023-04-11T16:02:49.832Z,45.20
2023-04-11T16:05:17.055Z,45.20
2023-04-11T16:07:44.014Z,45.40
2023-04-11T16:10:11.062Z,45.40
2023-04-11T16:12:37.845Z,45.50
2023-04-11T16:15:05.692Z,45.60
2023-04-11T16:17:32.773Z,45.70
2023-04-11T16:20:00.032Z,45.70
2023-04-11T16:22:26.950Z,45.70
2023-04-11T16:24:54.301Z,45.60
2023-04-11T16:27:21.690Z,45.50
2023-04-11T16:29:48.526Z,45.70
2023-04-11T16:32:15.476Z,45.90
2023-04-11T16:34:42.292Z,46.40
2023-04-11T16:37:09.119Z,46.80
2023-04-11T16:39:35.972Z,47.20
2023-04-11T16:42:03.348Z,47.70
2023-04-11T16:44:30.238Z,48.30
2023-04-11T16:46:57.050Z,49.00
2023-04-11T16:49:23.864Z,49.00
2023-04-11T16:51:50.942Z,49.20
2023-04-11T16:54:17.736Z,49.50
2023-04-11T16:56:44.573Z,49.90
2023-04-11T16:59:12.344Z,50.20
2023-04-11T17:01:39.449Z,50.50
2023-04-11T17:06:33.526Z,51.20
2023-04-11T17:09:00.412Z,51.40
2023-04-11T17:11:27.225Z,51.50
2023-04-11T17:13:56.078Z,51.80
2023-04-11T17:16:23.244Z,52.10
2023-04-11T17:18:50.243Z,52.30
2023-04-11T17:21:17.699Z,52.70
2023-04-11T17:23:47.108Z,52.90
2023-04-11T17:26:13.983Z,53.10
2023-04-11T17:28:41.038Z,53.40
2023-04-11T17:31:13.019Z,53.80
2023-04-11T17:33:40.231Z,54.20
2023-04-11T17:36:07.484Z,54.60
2023-04-11T17:38:34.412Z,55.20
2023-04-11T17:41:13.711Z,55.60
2023-04-11T17:43:41.647Z,56.00
2023-04-11T17:46:09.120Z,56.30
2023-04-11T17:48:36.408Z,56.70
2023-04-11T17:51:04.162Z,57.20
2023-04-11T17:53:31.111Z,57.60
2023-04-11T17:55:58.307Z,57.90
2023-04-11T17:58:25.475Z,58.20
2023-04-11T18:00:56.179Z,58.60
2023-04-11T18:03:25.529Z,58.90
2023-04-11T18:05:54.450Z,59.20
2023-04-11T18:08:35.513Z,59.60
2023-04-11T18:11:10.092Z,60.10
2023-04-11T18:13:36.907Z,60.50
2023-04-11T18:16:04.280Z,61.00
2023-04-11T18:18:31.348Z,61.30
2023-04-11T18:21:07.153Z,61.70
2023-04-11T18:23:34.853Z,62.00
2023-04-11T18:26:01.654Z,62.20
2023-04-11T18:28:28.751Z,62.50
2023-04-11T18:30:55.777Z,62.60
2023-04-11T18:33:22.819Z,62.70
2023-04-11T18:35:49.669Z,62.70
2023-04-11T18:38:16.599Z,62.80
2023-04-11T18:40:43.500Z,62.80
2023-04-11T18:43:10.453Z,62.90
2023-04-11T18:45:39.095Z,63.00
2023-04-11T18:48:06.751Z,63.00
2023-04-11T18:50:38.786Z,63.00
2023-04-11T18:53:08.863Z,63.10
2023-04-11T18:55:38.298Z,63.20
2023-04-11T18:58:08.500Z,63.40
2023-04-11T19:00:36.322Z,63.40
2023-04-11T19:03:05.044Z,63.60
2023-04-11T19:05:32.273Z,63.70
2023-04-11T19:07:59.709Z,63.80
2023-04-11T19:10:26.520Z,64.00
2023-04-11T19:12:53.383Z,64.10
2023-04-11T19:15:20.313Z,64.30
2023-04-11T19:17:47.213Z,64.40
2023-04-11T19:20:15.792Z,64.70
2023-04-11T19:22:42.884Z,64.90
2023-04-11T19:25:13.208Z,65.00
2023-04-11T19:27:41.986Z,65.20
2023-04-11T19:30:10.306Z,65.20
2023-04-11T19:32:40.631Z,65.30
2023-04-11T19:35:08.884Z,65.40
2023-04-11T19:37:36.405Z,65.60
2023-04-11T19:40:15.597Z,65.70
2023-04-11T19:42:43.168Z,65.70
2023-04-11T19:45:10.992Z,65.80
2023-04-11T19:47:39.638Z,65.90
2023-04-11T19:50:11.912Z,66.00
2023-04-11T19:52:40.602Z,66.20
2023-04-11T19:55:09.384Z,66.10
2023-04-11T19:57:40.194Z,66.30
2023-04-11T20:00:11.901Z,66.40
2023-04-11T20:02:41.035Z,67.10
2023-04-11T20:05:08.640Z,66.50
2023-04-11T20:07:35.474Z,66.60
2023-04-11T20:10:03.132Z,66.60
2023-04-11T20:12:29.929Z,66.70
2023-04-11T20:14:56.779Z,66.70
2023-04-11T20:17:23.668Z,66.80
2023-04-11T20:19:54.525Z,66.80
2023-04-11T20:22:25.652Z,66.70
2023-04-11T20:24:52.538Z,66.60
2023-04-11T20:27:19.406Z,66.60
2023-04-11T20:29:46.262Z,66.50
2023-04-11T20:32:13.051Z,66.40
2023-04-11T20:34:39.875Z,66.50
2023-04-11T20:37:06.966Z,66.50
2023-04-11T20:39:33.802Z,66.60
2023-04-11T20:42:03.538Z,66.60
2023-04-11T20:44:30.421Z,66.50
2023-04-11T20:46:57.275Z,66.50
2023-04-11T20:49:28.201Z,66.50
2023-04-11T20:51:55.101Z,66.50
2023-04-11T20:54:21.977Z,66.30
2023-04-11T20:56:48.823Z,66.20
2023-04-11T20:59:15.797Z,66.20
2023-04-11T21:01:43.994Z,66.10
2023-04-11T21:04:11.502Z,66.00
2023-04-11T21:06:38.435Z,65.90
2023-04-11T21:09:05.869Z,65.90
2023-04-11T21:11:33.768Z,65.90
2023-04-11T21:14:00.720Z,66.70
2023-04-11T21:16:27.647Z,66.40
2023-04-11T21:18:54.605Z,66.30
2023-04-11T21:21:21.471Z,66.30
2023-04-11T21:23:48.367Z,66.20
2023-04-11T21:26:15.449Z,66.50
2023-04-11T21:28:42.315Z,66.10
2023-04-11T21:31:09.200Z,65.80
2023-04-11T21:33:36.078Z,65.50
2023-04-11T21:36:02.941Z,65.50
2023-04-11T21:38:29.801Z,65.50
2023-04-11T21:40:56.772Z,65.80
2023-04-11T21:43:24.059Z,65.90
2023-04-11T21:45:50.919Z,66.00
2023-04-11T21:48:17.732Z,66.10
2023-04-11T21:50:45.844Z,66.20
2023-04-11T21:53:15.125Z,66.30
2023-04-11T21:55:46.376Z,66.40
2023-04-11T21:58:25.886Z,66.40
2023-04-11T22:00:55.996Z,66.40
2023-04-11T22:03:23.268Z,66.40
2023-04-11T22:05:50.783Z,66.60
2023-04-11T22:08:20.368Z,66.70
2023-04-11T22:10:48.285Z,66.80
2023-04-11T22:13:16.653Z,67.10
2023-04-11T22:15:43.860Z,67.10
2023-04-11T22:18:11.061Z,67.30
2023-04-11T22:20:43.520Z,67.70
2023-04-11T22:23:13.228Z,67.70
2023-04-11T22:25:43.315Z,67.80
2023-04-11T22:28:14.101Z,67.60
2023-04-11T22:30:41.474Z,67.40
2023-04-11T22:33:09.030Z,67.20
2023-04-11T22:35:35.963Z,67.10
2023-04-11T22:38:03.840Z,67.10
2023-04-11T22:40:30.848Z,67.50
2023-04-11T22:42:57.672Z,68.10
2023-04-11T22:45:24.592Z,68.50
2023-04-11T22:47:56.104Z,68.80
2023-04-11T22:50:23.064Z,69.00
2023-04-11T22:52:50.185Z,68.80
2023-04-11T22:55:18.670Z,68.90
2023-04-11T22:57:45.532Z,68.90
2023-04-11T23:00:15.786Z,68.90
2023-04-11T23:02:43.891Z,68.90
2023-04-11T23:05:11.082Z,68.80
2023-04-11T23:07:38.145Z,69.00
2023-04-11T23:10:06.264Z,69.20
2023-04-11T23:12:33.146Z,69.50
2023-04-11T23:15:02.281Z,69.40
2023-04-11T23:17:29.492Z,69.40
2023-04-11T23:19:59.360Z,69.70
2023-04-11T23:22:26.597Z,70.10
2023-04-11T23:24:53.823Z,70.30
2023-04-11T23:27:20.990Z,70.50
2023-04-11T23:29:52.646Z,70.80
2023-04-11T23:32:20.086Z,71.00
2023-04-11T23:34:46.930Z,71.10
2023-04-11T23:37:13.824Z,71.10
2023-04-11T23:39:41.094Z,71.10
2023-04-11T23:42:08.040Z,71.00
2023-04-11T23:44:35.006Z,71.00
2023-04-11T23:47:01.880Z,71.10
2023-04-11T23:49:29.534Z,71.20
2023-04-11T23:51:56.556Z,71.40
2023-04-11T23:54:23.366Z,71.60
2023-04-11T23:56:50.224Z,71.70
2023-04-11T23:59:17.019Z,72.10
